KBLH/BLH METAR and TAF weather

Enter ICAO airport designator
Station Type Date Time Source
KBLH METAR 2020/04/09 19:52 UTC NOAA

KBLH 091952Z AUTO 22005KT 10SM CLR 19/02 A3009 RMK AO2 SLP186 T01940022


Station Type Date Time Source
KBLH Decoded METAR 2020/04/09 19:52 UTC NOAA

BLYTHE AIRPORT, CA, United States (KBLH) 33-37N 114-43W 119M
Apr 09, 2020 - 03:52 PM EDT / 2020.04.09 1952 UTC
Wind: from the SW (220 degrees) at 6 MPH (5 KT):0
Visibility: 10 mile(s):0
Sky conditions: clear
Temperature: 66.9 F (19.4 C)
Dew Point: 36.0 F (2.2 C)
Relative Humidity: 31%
Pressure (altimeter): 30.09 in. Hg (1018 hPa)
ob: KBLH 091952Z AUTO 22005KT 10SM CLR 19/02 A3009 RMK AO2 SLP186 T01940022
cycle: 20

Station Type Date Time Source
KBLH TAF 2020/04/09 18:22 UTC NOAA

TAF KBLH 091720Z 0918/1018 VRB03KT P6SM FEW070
FM092100 19007KT P6SM SCT070
FM100300 24006KT P6SM BKN050 OVC100
FM100900 VRB04KT P6SM BKN050 OVC100
FM101300 35004KT P6SM VCSH BKN050 OVC100

Example: see airport list